Latest Weather Observations for Cairns Racecourse

IDQ60801

Issued at 12:42 am EST Friday 29 January 2021 (issued every 10 minutes, with the page automatically refreshed every 10 minutes)

About weather observations | Map of weather stations | Latest weather observations for QLD | Other Formats
Station Details ID: 031222 Name: CAIRNS RACECOURSE Lat: -16.95 Lon: 145.75 Height: 4.1 m
Data from the previous 72 hours. | See also: Recent months at Cairns Racecourse
Date/Time
EST
Temp
°C
App
Temp
°C
Dew
Point
°C
Rel
Hum
%
Delta-T
°C
Wind Press
QNH
hPa
Press
MSL
hPa
Rain since
9am
mm
Dir  Spd
km/h
Gust
km/h
Spd
kts
Gust
kts
29/12:32am 23.7 29.2 23.4 98 0.2 CALM 0 0 0 0 - - 101.0
29/12:30am 23.7 29.2 23.4 98 0.2 CALM 0 0 0 0 - - 101.0
29/12:15am 23.7 28.4 23.4 98 0.2 WNW 4 9 2 5 - - 100.8
29/12:03am 23.7 27.9 23.2 97 0.3 SSW 6 9 3 5 - - 100.2
29/12:00am 23.7 27.9 23.2 97 0.3 SSW 6 13 3 7 - - 100.2
 
Date/Time
EST
Temp
°C
App
Temp
°C
Dew
Point
°C
Rel
Hum
%
Delta-T
°C
Wind Press
QNH
hPa
Press
MSL
hPa
Rain since
9am
mm
Dir  Spd
km/h
Gust
km/h
Spd
kts
Gust
kts
28/11:43pm 23.5 25.7 21.9 91 1.1 E 13 20 7 11 - - 99.4
28/11:30pm 24.0 28.3 23.3 96 0.5 ESE 6 9 3 5 - - 98.6
28/11:00pm 23.7 28.9 22.9 95 0.5 CALM 0 0 0 0 - - 98.6
28/10:30pm 23.9 28.4 23.0 95 0.6 SSE 4 9 2 5 - - 98.6
28/10:00pm 23.9 26.8 22.5 92 0.9 SW 11 19 6 10 - - 98.6
28/09:41pm 23.9 25.6 23.0 95 0.6 SW 19 26 10 14 - - 98.6
28/09:30pm 23.9 27.7 23.4 97 0.3 WSW 9 17 5 9 - - 98.4
28/09:00pm 23.5 28.6 23.3 99 0.1 SSE 2 7 1 4 - - 93.2
28/08:30pm 23.6 27.4 22.8 95 0.5 SSE 7 15 4 8 - - 87.8
28/08:00pm 23.9 28.1 23.4 97 0.3 N 7 9 4 5 - - 74.4
28/07:53pm 23.8 28.0 23.1 96 0.5 N 6 9 3 5 - - 74.0
28/07:30pm 24.0 27.9 23.0 94 0.7 NW 7 11 4 6 - - 73.4
28/07:00pm 23.8 27.3 22.8 94 0.7 NE 9 17 5 9 - - 73.4
28/06:30pm 23.8 26.9 22.2 91 1.1 SW 9 13 5 7 - - 73.2
28/06:17pm 23.6 26.2 22.0 91 1.1 SW 11 15 6 8 - - 73.2
28/06:02pm 23.5 24.2 21.2 87 1.5 SSE 19 32 10 17 - - 73.2
28/06:00pm 23.5 24.2 21.2 87 1.5 SE 19 32 10 17 - - 73.0
28/05:30pm 25.4 30.3 24.4 94 0.7 SE 6 7 3 4 - - 72.0
28/05:00pm 25.3 31.4 24.4 95 0.6 CALM 0 0 0 0 - - 71.6
28/04:40pm 24.9 29.4 23.7 93 0.8 SW 6 15 3 8 - - 71.6
28/04:30pm 24.5 28.7 23.5 94 0.7 SSW 7 13 4 7 - - 71.6
28/04:08pm 24.7 28.5 24.0 96 0.5 SW 11 17 6 9 - - 69.8
28/04:05pm 24.7 28.3 23.8 95 0.6 SW 11 13 6 7 - - 69.8
28/04:00pm 24.7 28.6 24.2 97 0.3 SW 11 15 6 8 - - 69.6
28/03:30pm 24.1 27.4 23.8 98 0.2 WSW 13 17 7 9 - - 66.6
28/03:00pm 23.9 25.9 23.0 95 0.6 SE 17 24 9 13 - - 61.0
28/02:30pm 25.3 30.0 24.3 94 0.7 SE 7 13 4 7 - - 53.4
28/02:17pm 26.0 30.1 23.9 88 1.4 S 9 17 5 9 - - 49.2
28/02:14pm 26.1 30.1 23.8 87 1.6 SSW 9 17 5 9 - - 48.2
28/02:00pm 25.9 29.5 24.3 91 1.1 S 13 20 7 11 - - 48.0
28/01:58pm 25.9 28.8 23.9 89 1.4 S 15 20 8 11 - - 48.0
28/01:34pm 26.7 30.2 24.9 90 1.3 SSW 15 20 8 11 - - 47.8
28/01:30pm 26.9 31.3 25.7 93 0.8 SSW 13 17 7 9 - - 47.8
28/01:00pm 25.3 29.3 24.4 95 0.6 WSW 11 19 6 10 - - 46.8
28/12:31pm 25.2 29.5 24.2 94 0.7 NE 9 15 5 8 - - 39.6
28/12:30pm 25.3 29.6 24.3 94 0.7 NE 9 15 5 8 - - 39.0
28/12:00pm 26.1 30.4 24.3 90 1.2 W 9 17 5 9 - - 24.8
28/11:43am 25.7 29.1 24.1 91 1.1 NNW 13 17 7 9 - - 21.6
28/11:30am 26.0 31.1 25.0 94 0.7 W 7 11 4 6 - - 13.0
28/11:08am 25.9 30.5 24.7 93 0.8 S 9 15 5 8 - - 11.2
28/11:00am 26.1 30.9 25.1 94 0.7 WSW 9 13 5 7 - - 10.4
28/10:30am 25.7 29.7 23.7 89 1.4 SSW 9 15 5 8 - - 8.0
28/10:02am 26.0 30.3 24.2 90 1.2 E 9 17 5 9 - - 3.0
28/10:00am 26.2 30.4 24.1 88 1.4 ESE 9 19 5 10 - - 3.0
28/09:47am 26.8 29.7 24.5 87 1.6 S 17 24 9 13 - - 2.4
28/09:30am 26.0 30.0 24.4 91 1.1 SSW 11 17 6 9 - - 2.2
28/09:21am 26.3 30.6 24.9 92 1.0 S 11 13 6 7 - - 0.6
28/09:10am 26.1 29.9 24.1 89 1.4 S 11 20 6 11 - - 0.0
28/09:00am 26.0 29.5 24.2 90 1.2 S 13 19 7 10 - - 7.6
28/08:50am 25.8 29.2 24.0 90 1.2 SSE 13 20 7 11 - - 7.0
28/08:30am 27.3 31.5 24.7 86 1.8 SSW 11 17 6 9 - - 6.4
28/08:14am 26.6 30.5 24.3 87 1.6 SSW 11 17 6 9 - - 6.4
28/08:00am 25.7 29.1 24.1 91 1.1 S 13 19 7 10 - - 6.4
28/07:56am 25.7 29.5 24.1 91 1.1 S 11 15 6 8 - - 6.2
28/07:30am 25.3 28.9 23.7 91 1.1 SSW 11 15 6 8 - - 5.8
28/07:00am 25.1 29.4 24.2 95 0.6 S 9 13 5 7 - - 5.6
28/06:56am 25.0 29.2 24.1 95 0.6 S 9 13 5 7 - - 5.6
28/06:36am 25.0 29.2 24.1 95 0.6 SSE 9 13 5 7 - - 5.0
28/06:30am 24.9 29.0 23.9 94 0.7 SSW 9 13 5 7 - - 4.0
28/06:00am 24.9 29.7 24.2 96 0.5 SSE 6 11 3 6 - - 3.2
28/05:30am 24.9 30.9 24.2 96 0.5 CALM 0 0 0 0 - - 3.0
28/05:23am 24.9 30.9 24.2 96 0.5 CALM 0 0 0 0 - - 3.0
28/05:07am 24.9 29.7 24.2 96 0.5 NNE 6 9 3 5 - - 3.0
28/05:00am 24.8 30.3 24.1 96 0.5 SW 2 7 1 4 - - 2.4
28/04:40am 24.9 29.6 24.0 95 0.6 S 6 7 3 4 - - 2.4
28/04:30am 24.9 29.6 23.9 94 0.7 S 6 9 3 5 - - 2.4
28/04:24am 24.9 29.6 24.0 95 0.6 SSE 6 9 3 5 - - 2.2
28/04:00am 25.0 30.8 24.0 94 0.7 CALM 0 0 0 0 - - 1.6
28/03:30am 25.2 31.0 24.0 93 0.8 CALM 0 0 0 0 - - 1.6
28/03:00am 25.2 31.0 24.0 93 0.8 CALM 0 0 0 0 - - 0.8
28/02:30am 25.2 30.6 23.8 92 1.0 SSW 2 7 1 4 - - 0.8
28/02:00am 25.3 29.7 23.4 89 1.3 S 6 7 3 4 - - 0.2
28/01:30am 25.9 30.0 23.2 85 1.8 SE 7 11 4 6 - - 0.2
28/01:00am 26.5 30.4 23.0 81 2.4 SSE 7 11 4 6 - - 0.0
28/12:30am 26.7 30.3 23.0 80 2.5 S 9 15 5 8 - - 0.0
28/12:00am 26.8 30.4 23.1 80 2.5 S 9 13 5 7 - - 0.0
 
Date/Time
EST
Temp
°C
App
Temp
°C
Dew
Point
°C
Rel
Hum
%
Delta-T
°C
Wind Press
QNH
hPa
Press
MSL
hPa
Rain since
9am
mm
Dir  Spd
km/h
Gust
km/h
Spd
kts
Gust
kts
27/11:30pm 26.8 30.4 23.1 80 2.5 S 9 13 5 7 - - 0.0
27/11:00pm 26.9 30.6 23.2 80 2.5 S 9 13 5 7 - - 0.0
27/10:30pm 27.0 31.1 23.3 80 2.5 S 7 13 4 7 - - 0.0
27/10:00pm 27.2 30.5 23.2 79 2.7 S 11 15 6 8 - - 0.0
27/09:30pm 27.1 31.2 23.3 80 2.6 S 7 9 4 5 - - 0.0
27/09:00pm 27.3 31.0 23.3 79 2.7 SSW 9 15 5 8 - - 0.0
27/08:30pm 27.8 32.0 23.2 76 3.1 SSE 6 11 3 6 - - 0.0
27/08:00pm 27.9 31.6 23.3 76 3.1 ESE 9 13 5 7 - - 0.0
27/07:30pm 27.9 31.6 23.3 76 3.1 E 9 13 5 7 - - 0.0
27/07:00pm 28.2 31.4 23.1 74 3.5 ESE 11 15 6 8 - - 0.0
27/06:30pm 28.7 31.6 23.1 71 3.8 E 13 17 7 9 - - 0.0
27/06:00pm 29.0 31.8 23.0 70 4.1 ESE 13 22 7 12 - - 0.0
27/05:30pm 28.9 30.9 22.9 70 4.1 ESE 17 24 9 13 - - 0.0
27/05:00pm 29.3 31.1 22.5 67 4.6 ESE 17 24 9 13 - - 0.0
27/04:30pm 29.5 30.3 21.4 61 5.4 ESE 19 26 10 14 - - 0.0
27/04:00pm 29.6 30.6 21.0 60 5.7 ESE 17 24 9 13 - - 0.0
27/03:30pm 30.0 30.8 21.4 60 5.8 SE 19 28 10 15 - - 0.0
27/03:00pm 31.3 32.8 21.2 55 6.8 ESE 15 20 8 11 - - 0.0
27/02:30pm 31.5 32.5 21.1 54 7.0 ESE 17 26 9 14 - - 0.0
27/02:00pm 32.5 34.2 21.7 53 7.3 ESE 15 20 8 11 - - 0.0
27/01:30pm 32.8 34.8 21.6 51 7.6 E 13 24 7 13 - - 0.0
27/01:00pm 32.3 34.7 21.5 53 7.3 ESE 11 19 6 10 - - 0.0
27/12:30pm 31.7 33.9 21.2 53 7.1 ENE 11 20 6 11 - - 0.0
27/12:00pm 31.2 33.4 21.9 57 6.3 ESE 13 19 7 10 - - 0.0
27/11:30am 30.3 32.8 21.7 60 5.8 E 11 17 6 9 - - 0.0
27/11:00am 29.8 32.7 21.7 61 5.4 SE 9 15 5 8 - - 0.0
27/10:30am 29.5 31.9 22.2 65 4.9 SE 13 19 7 10 - - 0.0
27/10:00am 29.3 32.3 22.0 64 4.9 SE 9 17 5 9 - - 0.0
27/09:30am 29.1 32.4 22.6 68 4.4 SSE 9 13 5 7 - - 0.0
27/09:00am 27.7 31.2 22.9 75 3.3 SSE 9 13 5 7 - - 0.0
27/08:30am 26.5 29.5 21.9 76 3.1 S 9 13 5 7 - - 0.0
27/08:00am 25.5 28.9 22.0 81 2.3 SSE 7 11 4 6 - - 0.0
27/07:30am 24.2 28.6 21.3 84 1.9 CALM 0 0 0 0 - - 0.0
27/07:00am 23.3 26.5 21.2 88 1.4 S 6 9 3 5 - - 0.0
27/06:30am 22.7 25.7 21.2 91 1.0 S 7 13 4 7 - - 0.0
27/06:00am 22.4 24.8 20.9 91 1.0 SSW 9 13 5 7 - - 0.0
27/05:30am 22.5 25.4 21.0 91 1.0 SSE 7 11 4 6 - - 0.0
27/05:00am 22.6 25.5 21.1 91 1.0 S 7 9 4 5 - - 0.0
27/04:30am 22.7 25.9 21.2 91 1.0 S 6 11 3 6 - - 0.0
27/04:00am 22.8 26.3 21.1 90 1.1 SSE 4 9 2 5 - - 0.0
27/03:30am 23.0 25.7 21.3 90 1.1 S 9 11 5 6 - - 0.0
27/03:00am 23.2 26.3 21.5 90 1.1 S 7 11 4 6 - - 0.0
27/02:30am 23.2 26.4 21.6 91 1.1 S 7 9 4 5 - - 0.0
27/02:00am 23.7 27.1 22.0 90 1.1 SSE 7 11 4 6 - - 0.0
27/01:30am 24.0 27.5 22.1 89 1.3 SSE 7 11 4 6 - - 0.0
27/01:00am 24.1 28.1 22.0 88 1.4 SSE 4 9 2 5 - - 0.0
27/12:30am 24.3 27.8 22.2 88 1.4 S 7 11 4 6 - - 0.0
27/12:00am 24.7 28.1 22.0 85 1.8 S 7 13 4 7 - - 0.0
 
Date/Time
EST
Temp
°C
App
Temp
°C
Dew
Point
°C
Rel
Hum
%
Delta-T
°C
Wind Press
QNH
hPa
Press
MSL
hPa
Rain since
9am
mm
Dir  Spd
km/h
Gust
km/h
Spd
kts
Gust
kts
26/11:30pm 25.1 28.9 22.8 87 1.6 S 7 11 4 6 - - 0.0
26/11:00pm 25.4 30.6 22.9 86 1.7 CALM 0 0 0 0 - - 0.0
26/10:30pm 25.5 30.6 22.6 84 2.0 CALM 0 0 0 0 - - 0.0
26/10:00pm 25.7 29.4 22.2 81 2.3 SSW 6 7 3 4 - - 0.0
26/09:30pm 25.6 29.3 22.3 82 2.2 SSW 6 9 3 5 - - 0.0
26/09:00pm 25.9 29.6 22.2 80 2.5 SSW 6 9 3 5 - - 0.0
26/08:30pm 26.5 30.1 22.3 78 2.8 S 7 13 4 7 - - 0.0
26/08:00pm 26.7 30.4 22.3 77 3.0 SSE 6 11 3 6 - - 0.0
26/07:30pm 27.0 30.2 22.4 76 3.1 ESE 9 13 5 7 - - 0.0
26/07:00pm 27.3 30.1 22.3 74 3.4 ESE 11 15 6 8 - - 0.0
26/06:30pm 27.9 30.3 22.2 71 3.8 ESE 13 17 7 9 - - 0.0
26/06:00pm 28.4 30.9 22.4 70 4.1 SE 13 20 7 11 - - 0.0
26/05:30pm 29.2 30.6 21.9 64 4.9 ESE 17 24 9 13 - - 0.0
26/05:00pm 29.5 30.7 22.2 65 4.9 ESE 19 30 10 16 - - 0.0
26/04:30pm 30.0 30.8 21.4 60 5.8 SE 19 26 10 14 - - 0.0
26/04:00pm 30.9 32.7 22.5 61 5.7 SE 17 24 9 13 - - 0.0
26/03:30pm 31.2 32.2 21.1 55 6.8 SE 17 24 9 13 - - 0.0
26/03:00pm 31.9 33.8 22.0 55 6.7 SE 15 24 8 13 - - 0.0
26/02:30pm 31.8 34.5 22.8 59 6.2 SE 13 24 7 13 - - 0.0
26/02:00pm 31.3 32.7 20.3 52 7.3 SSE 13 24 7 13 - - 0.0
26/01:30pm 31.2 33.7 22.5 60 5.9 ESE 13 20 7 11 - - 0.0
26/01:00pm 31.3 32.9 21.5 56 6.6 ESE 15 22 8 12 - - 0.0
26/12:30pm 31.3 34.8 22.9 61 5.8 ESE 9 17 5 9 - - 0.0
26/12:00pm 31.1 34.0 22.4 60 5.9 ESE 11 17 6 9 - - 0.0
26/11:30am 30.2 33.1 22.4 63 5.3 E 11 17 6 9 - - 0.0
26/11:00am 30.8 35.5 22.7 62 5.5 NW 2 7 1 4 - - 0.0
26/10:30am 30.1 33.0 21.7 60 5.7 ESE 9 15 5 8 - - 0.0
26/10:00am 29.7 33.2 21.9 63 5.3 SW 6 9 3 5 - - 0.0
26/09:30am 29.0 32.2 21.7 64 4.9 SE 7 11 4 6 - - 0.0
26/09:00am 28.3 31.9 22.3 70 4.1 SSE 7 11 4 6 - - 0.0
26/08:30am 27.0 29.8 21.5 72 3.7 SE 9 15 5 8 - - 0.0
26/08:00am 26.6 30.4 21.6 74 3.3 SSE 4 9 2 5 - - 0.0
26/07:30am 25.2 28.7 21.9 82 2.2 S 6 9 3 5 - - 0.0
26/07:00am 24.2 27.5 21.5 85 1.8 SSE 6 9 3 5 - - 0.0
26/06:30am 23.3 26.5 21.6 90 1.1 SSE 7 9 4 5 - - 0.0
26/06:00am 22.9 26.2 21.4 91 1.0 S 6 9 3 5 - - 0.0
26/05:30am 22.9 26.0 21.5 92 0.9 SSE 7 11 4 6 - - 0.0
26/05:00am 23.0 26.6 21.3 90 1.1 SSE 4 7 2 4 - - 0.0
26/04:30am 23.3 26.6 21.4 89 1.3 SE 6 7 3 4 - - 0.0
26/04:00am 23.4 26.7 21.5 89 1.3 SSW 6 9 3 5 - - 0.0
26/03:30am 23.4 27.5 21.5 89 1.3 SSW 2 7 1 4 - - 0.0
26/03:00am 23.3 27.1 21.7 91 1.1 SE 4 7 2 4 - - 0.0
26/02:30am 23.1 27.6 21.5 91 1.1 CALM 0 0 0 0 - - 0.0
26/02:00am 23.4 26.7 21.8 91 1.1 S 7 9 4 5 - - 0.0
26/01:30am 23.7 26.6 21.8 89 1.3 SSE 9 13 5 7 - - 0.0
26/01:00am 23.8 27.3 22.1 90 1.1 S 7 11 4 6 - - 0.0

Other formats

Comma delimited format used in spreadsheet applications
http://www.bom.gov.au/fwo/IDQ60801/IDQ60801.94288.axf

JavaScript Object Notation format (JSON) in row-major order
http://www.bom.gov.au/fwo/IDQ60801/IDQ60801.94288.json

Data quality

Most of these data are generated automatically and are frequently updated. Quality checks on data are not normally performed. It is possible for incorrect values to appear. Refer to information at About Latest Weather Observations and please check the disclaimer before using these data.